Time;durP1;ratioP1;P1;durP2;ratioP2;P2;SDS_P1;SDS_P2;PMS_P1;PMS_P2;Temp;Humidity;BMP_temperature;BMP_pressure;BME280_temperature;BME280_humidity;BME280_pressure;Samples;Min_cycle;Max_cycle;Signal;HPM_P1;HPM_P2
2022/03/26 00:00:59;;;;;;;;;;;;;;;6.18;47.49;99271.43;1762538;80;22241;-86
2022/03/26 00:03:25;;;;;;;;;;;;;;;6.12;47.58;99278.61;1723888;81;21006;-84
2022/03/26 00:05:51;;;;;;;;;;;;;;;6.08;47.71;99274.00;1768615;80;24570;-85
2022/03/26 00:08:17;;;;;;;;;;;;;;;6.04;47.82;99273.73;1773187;80;20214;-85
2022/03/26 00:10:43;;;;;;;;;;;;;;;5.99;47.92;99273.51;1760467;80;24704;-85
2022/03/26 00:13:09;;;;;;;;;;;;;;;5.91;48.04;99271.19;1769675;80;20233;-85
2022/03/26 00:15:35;;;;;;;;;;;;;;;5.85;48.15;99273.98;1765897;80;25988;-84
2022/03/26 00:18:02;;;;;;;;;;;;;;;5.80;48.26;99269.41;1773218;79;20265;-85
2022/03/26 00:20:28;;;;;;;;;;;;;;;5.79;48.39;99270.30;1768747;79;20214;-85
2022/03/26 00:22:54;;;;;;;;;;;;;;;5.77;48.53;99270.84;1773231;80;24799;-85
2022/03/26 00:25:21;;;;;;;;;;;;;;;5.74;48.64;99268.33;1778692;80;22689;-85
2022/03/26 00:27:48;;;;;;;;;;;;;;;5.73;48.77;99265.33;1772081;80;27188;-85
2022/03/26 00:30:15;;;;;;;;;;;;;;;5.72;48.88;99264.97;1777493;80;24486;-85
2022/03/26 00:32:41;;;;;;;;;;;;;;;5.68;48.98;99256.87;1780137;80;20232;-85
2022/03/26 00:35:09;;;;;;;;;;;;;;;5.67;49.09;99259.95;1773223;80;20559;-85
2022/03/26 00:37:41;;;;;;;;;;;;;;;5.68;49.20;99262.91;1772582;80;21643;-86
2022/03/26 00:40:09;;;;;;;;;;;;;;;5.66;49.28;99262.59;1703229;82;26630;-86
2022/03/26 00:42:35;;;;;;;;;;;;;;;5.64;49.39;99260.48;1775661;80;24527;-85
2022/03/26 00:45:04;;;;;;;;;;;;;;;5.62;49.49;99263.61;1775663;79;20226;-86
2022/03/26 00:47:30;;;;;;;;;;;;;;;5.56;49.57;99253.00;1776236;80;24752;-86
2022/03/26 00:49:56;;;;;;;;;;;;;;;5.55;49.64;99251.75;1776163;80;21991;-85
2022/03/26 00:52:23;;;;;;;;;;;;;;;5.52;49.74;99249.25;1771956;79;20988;-85
2022/03/26 00:54:49;;;;;;;;;;;;;;;5.46;49.81;99245.97;1781940;80;24534;-85
2022/03/26 00:57:16;;;;;;;;;;;;;;;5.42;49.88;99239.20;1772015;79;20811;-85
2022/03/26 00:59:45;;;;;;;;;;;;;;;5.37;49.97;99243.72;1772719;80;25599;-85
2022/03/26 01:02:11;;;;;;;;;;;;;;;5.35;50.03;99247.26;1780225;80;21707;-85
2022/03/26 01:04:38;;;;;;;;;;;;;;;5.32;50.13;99246.93;1771801;80;20956;-86
2022/03/26 01:07:04;;;;;;;;;;;;;;;5.28;50.22;99247.95;1774355;79;24431;-86
2022/03/26 01:09:30;;;;;;;;;;;;;;;5.24;50.30;99245.05;1768917;80;20902;-85
2022/03/26 01:11:56;;;;;;;;;;;;;;;5.19;50.37;99246.95;1779168;80;20865;-86
2022/03/26 01:14:22;;;;;;;;;;;;;;;5.15;50.44;99250.56;1772775;80;20221;-85
2022/03/26 01:16:48;;;;;;;;;;;;;;;5.10;50.52;99247.73;1765368;80;25926;-85
2022/03/26 01:19:15;;;;;;;;;;;;;;;5.05;50.62;99237.08;1783981;80;24640;-85
2022/03/26 01:21:41;;;;;;;;;;;;;;;5.03;50.71;99241.91;1786981;80;20191;-86
2022/03/26 01:24:08;;;;;;;;;;;;;;;4.99;50.82;99239.03;1780857;80;24811;-86
2022/03/26 01:26:35;;;;;;;;;;;;;;;4.96;50.90;99245.63;1785770;80;21966;-86
2022/03/26 01:29:05;;;;;;;;;;;;;;;4.95;51.04;99242.64;1779659;80;25953;-85
2022/03/26 01:31:31;;;;;;;;;;;;;;;4.98;51.13;99241.22;1781056;80;24534;-85
2022/03/26 01:33:57;;;;;;;;;;;;;;;5.01;51.25;99239.39;1777686;80;20509;-85
2022/03/26 01:36:24;;;;;;;;;;;;;;;5.03;51.35;99241.91;1777415;80;24856;-85
2022/03/26 01:38:50;;;;;;;;;;;;;;;5.03;51.42;99240.61;1780743;80;21946;-86
2022/03/26 01:41:17;;;;;;;;;;;;;;;5.00;51.50;99242.88;1782004;80;21088;-85
2022/03/26 01:43:43;;;;;;;;;;;;;;;4.96;51.57;99241.27;1778947;79;24435;-85
2022/03/26 01:46:10;;;;;;;;;;;;;;;4.93;51.67;99235.34;1776361;80;20257;-85
2022/03/26 01:48:37;;;;;;;;;;;;;;;4.92;51.75;99242.27;1777913;79;24723;-85
2022/03/26 01:51:14;;;;;;;;;;;;;;;4.87;51.83;99235.10;1779107;79;22713;-85
2022/03/26 01:53:31;;;;;;;;;;;;;;;4.85;51.92;99235.62;1775956;80;26002;-85
2022/03/26 01:55:58;;;;;;;;;;;;;;;4.85;52.01;99241.26;1779612;80;24439;-85
2022/03/26 01:58:24;;;;;;;;;;;;;;;4.86;52.10;99242.92;1781968;80;20417;-85
2022/03/26 02:00:50;;;;;;;;;;;;;;;4.88;52.18;99243.73;1779559;80;24708;-85
2022/03/26 02:03:16;;;;;;;;;;;;;;;4.87;52.29;99245.92;1780779;80;20303;-85
2022/03/26 02:05:42;;;;;;;;;;;;;;;4.84;52.34;99246.89;1779836;80;26032;-85
2022/03/26 02:08:08;;;;;;;;;;;;;;;4.85;52.44;99251.63;1782805;78;20229;-85
2022/03/26 02:10:34;;;;;;;;;;;;;;;4.84;52.51;99246.05;1751784;80;20260;-86
2022/03/26 02:13:00;;;;;;;;;;;;;;;4.82;52.59;99245.23;1770275;79;24715;-85
2022/03/26 02:15:26;;;;;;;;;;;;;;;4.79;52.66;99247.95;1776545;80;22036;-86
2022/03/26 02:17:52;;;;;;;;;;;;;;;4.73;52.73;99246.41;1778001;80;25929;-85
2022/03/26 02:20:22;;;;;;;;;;;;;;;4.71;52.81;99251.23;1778854;80;24654;-85
2022/03/26 02:22:48;;;;;;;;;;;;;;;4.63;52.87;99248.91;1782105;80;20493;-85
2022/03/26 02:25:14;;;;;;;;;;;;;;;4.58;52.94;99247.73;1778313;80;24917;-86
2022/03/26 02:27:40;;;;;;;;;;;;;;;4.56;53.07;99250.00;1775681;80;21962;-85
2022/03/26 02:30:07;;;;;;;;;;;;;;;4.43;53.13;99249.53;1775477;80;26769;-84
2022/03/26 02:32:33;;;;;;;;;;;;;;;4.34;53.19;99248.98;1770330;80;24604;-84
2022/03/26 02:34:59;;;;;;;;;;;;;;;4.26;53.27;99248.36;1777821;80;20890;-85
2022/03/26 02:37:25;;;;;;;;;;;;;;;4.16;53.34;99249.95;1771146;79;20751;-85
2022/03/26 02:39:52;;;;;;;;;;;;;;;4.14;53.45;99251.77;1770600;79;22062;-85
2022/03/26 02:42:18;;;;;;;;;;;;;;;4.18;53.61;99255.95;1779860;80;25973;-86
2022/03/26 02:44:44;;;;;;;;;;;;;;;4.19;53.78;99251.17;1775235;80;24497;-85
2022/03/26 02:47:10;;;;;;;;;;;;;;;4.21;53.90;99249.81;1777028;80;20902;-85
2022/03/26 02:49:37;;;;;;;;;;;;;;;4.25;54.03;99244.11;1776674;79;24824;-84
2022/03/26 02:52:03;;;;;;;;;;;;;;;4.27;54.18;99243.59;1777512;79;22038;-85
2022/03/26 02:54:30;;;;;;;;;;;;;;;4.27;54.30;99243.59;1781660;80;26005;-85
2022/03/26 02:56:56;;;;;;;;;;;;;;;4.30;54.43;99243.06;1782186;80;24541;-85
2022/03/26 02:59:23;;;;;;;;;;;;;;;4.29;54.53;99241.81;1776829;80;20426;-85
2022/03/26 03:01:52;;;;;;;;;;;;;;;4.26;54.61;99247.06;1775224;80;24292;-85
2022/03/26 03:04:20;;;;;;;;;;;;;;;4.23;54.71;99245.88;1778796;80;22044;-85
2022/03/26 03:06:47;;;;;;;;;;;;;;;4.20;54.81;99247.66;1775608;80;27209;-85
2022/03/26 03:09:13;;;;;;;;;;;;;;;4.18;54.90;99245.59;1782313;80;24398;-85
2022/03/26 03:11:40;;;;;;;;;;;;;;;4.15;54.98;99244.37;1774161;80;20806;-85
2022/03/26 03:14:06;;;;;;;;;;;;;;;4.13;55.08;99243.59;1778832;80;24892;-85
2022/03/26 03:16:32;;;;;;;;;;;;;;;4.07;55.17;99237.30;1774483;80;20839;-85
2022/03/26 03:19:00;;;;;;;;;;;;;;;4.04;55.28;99237.82;1777557;80;26010;-84
2022/03/26 03:21:26;;;;;;;;;;;;;;;3.98;55.41;99234.97;1774327;80;24504;-85
2022/03/26 03:23:52;;;;;;;;;;;;;;;3.96;55.51;99238.52;1774091;80;20350;-85
2022/03/26 03:26:18;;;;;;;;;;;;;;;3.91;55.63;99238.66;1778671;80;20350;-86
2022/03/26 03:28:44;;;;;;;;;;;;;;;3.88;55.76;99232.70;1777219;80;20232;-85
2022/03/26 03:31:11;;;;;;;;;;;;;;;3.84;55.88;99228.52;1780411;80;26020;-85
2022/03/26 03:33:37;;;;;;;;;;;;;;;3.79;56.02;99234.70;1776249;80;24479;-85
2022/03/26 03:36:03;;;;;;;;;;;;;;;3.77;56.14;99227.86;1780067;80;20201;-84
2022/03/26 03:38:29;;;;;;;;;;;;;;;3.74;56.28;99229.25;1771916;79;24737;-84
2022/03/26 03:40:55;;;;;;;;;;;;;;;3.71;56.44;99227.59;1777607;80;22042;-85
2022/03/26 03:43:22;;;;;;;;;;;;;;;3.68;56.56;99225.11;1774301;80;20992;-84
2022/03/26 03:45:48;;;;;;;;;;;;;;;3.66;56.69;99225.58;1775820;80;24503;-84
2022/03/26 03:48:15;;;;;;;;;;;;;;;3.64;56.83;99227.83;1774569;80;20260;-83
2022/03/26 03:50:41;;;;;;;;;;;;;;;3.61;56.96;99226.16;1775806;80;24975;-85
2022/03/26 03:53:07;;;;;;;;;;;;;;;3.60;57.10;99220.58;1777621;80;21983;-85
2022/03/26 03:55:33;;;;;;;;;;;;;;;3.59;57.23;99224.53;1781007;80;21088;-84
2022/03/26 03:57:59;;;;;;;;;;;;;;;3.58;57.36;99225.42;1768810;80;24401;-85
2022/03/26 04:00:25;;;;;;;;;;;;;;;3.58;57.49;99224.13;1772568;80;20260;-84
2022/03/26 04:02:53;;;;;;;;;;;;;;;3.59;57.63;99227.97;1778123;80;24777;-84
2022/03/26 04:05:19;;;;;;;;;;;;;;;3.57;57.74;99224.56;1778065;80;22179;-85
2022/03/26 04:07:46;;;;;;;;;;;;;;;3.56;57.87;99222.02;1779252;80;25455;-84
2022/03/26 04:10:13;;;;;;;;;;;;;;;3.55;58.00;99222.46;1775368;80;24611;-85
2022/03/26 04:12:40;;;;;;;;;;;;;;;3.54;58.13;99222.09;1774748;80;20546;-85
2022/03/26 04:15:07;;;;;;;;;;;;;;;3.56;58.25;99211.22;1777336;80;25490;-84
2022/03/26 04:17:33;;;;;;;;;;;;;;;3.56;58.36;99219.42;1777637;79;21988;-84
2022/03/26 04:20:08;;;;;;;;;;;;;;;3.58;58.50;99213.77;1781701;79;21086;-86
2022/03/26 04:22:34;;;;;;;;;;;;;;;3.58;58.65;99211.19;1786013;79;24491;-84
2022/03/26 04:25:00;;;;;;;;;;;;;;;3.57;58.75;99210.78;1770751;79;20174;-85
2022/03/26 04:27:26;;;;;;;;;;;;;;;3.55;58.84;99213.84;1773954;79;24901;-84
2022/03/26 04:29:53;;;;;;;;;;;;;;;3.55;58.94;99213.84;1768683;79;22006;-85
2022/03/26 04:32:19;;;;;;;;;;;;;;;3.53;59.06;99215.20;1770873;79;26043;-84
2022/03/26 04:34:45;;;;;;;;;;;;;;;3.53;59.17;99215.20;1758951;79;20285;-86
2022/03/26 04:37:11;;;;;;;;;;;;;;;3.52;59.27;99210.92;1771879;79;20812;-84
2022/03/26 04:39:37;;;;;;;;;;;;;;;3.54;59.39;99215.61;1774705;79;20292;-85
2022/03/26 04:42:03;;;;;;;;;;;;;;;3.56;59.51;99215.55;1784701;79;22053;-85
2022/03/26 04:44:29;;;;;;;;;;;;;;;3.59;59.63;99215.47;1776948;79;26127;-85
2022/03/26 04:46:55;;;;;;;;;;;;;;;3.59;59.73;99211.59;1778156;79;24393;-84
2022/03/26 04:49:22;;;;;;;;;;;;;;;3.63;59.83;99213.19;1778126;79;20488;-85
2022/03/26 04:51:48;;;;;;;;;;;;;;;3.63;59.94;99218.37;1787675;79;24816;-85
2022/03/26 04:54:14;;;;;;;;;;;;;;;3.62;60.03;99217.52;1775763;79;21983;-85
2022/03/26 04:56:40;;;;;;;;;;;;;;;3.61;60.11;99228.75;1760822;79;21133;-85
2022/03/26 04:59:06;;;;;;;;;;;;;;;3.62;60.18;99228.31;1768874;79;24497;-86
2022/03/26 05:01:32;;;;;;;;;;;;;;;3.62;60.29;99222.69;1768409;79;20474;-85
2022/03/26 05:03:58;;;;;;;;;;;;;;;3.64;60.39;99222.66;1747406;80;20312;-84
2022/03/26 05:06:24;;;;;;;;;;;;;;;3.67;60.50;99223.41;1774096;79;20213;-85
2022/03/26 05:08:50;;;;;;;;;;;;;;;3.71;60.58;99219.82;1774062;79;26166;-84
2022/03/26 05:11:16;;;;;;;;;;;;;;;3.72;60.68;99225.41;1771704;79;20866;-86
2022/03/26 05:13:45;;;;;;;;;;;;;;;3.75;60.77;99227.92;1773430;79;20163;-85
2022/03/26 05:16:12;;;;;;;;;;;;;;;3.76;60.86;99221.83;1782505;79;24760;-84
2022/03/26 05:18:38;;;;;;;;;;;;;;;3.79;60.92;99223.48;1778918;79;21976;-85
2022/03/26 05:21:07;;;;;;;;;;;;;;;3.83;61.02;99223.79;1768455;80;26071;-85
2022/03/26 05:23:33;;;;;;;;;;;;;;;3.91;61.17;99229.59;1773136;80;24428;-85
2022/03/26 05:26:01;;;;;;;;;;;;;;;3.95;61.31;99226.45;1755574;79;20303;-85
2022/03/26 05:28:27;;;;;;;;;;;;;;;4.03;61.43;99230.97;1761370;79;24803;-85
2022/03/26 05:30:54;;;;;;;;;;;;;;;4.12;61.55;99234.12;1768321;79;20354;-85
2022/03/26 05:33:20;;;;;;;;;;;;;;;4.17;61.64;99226.20;1780122;79;26000;-85
2022/03/26 05:35:46;;;;;;;;;;;;;;;4.20;61.72;99232.12;1774897;79;24663;-85
2022/03/26 05:38:12;;;;;;;;;;;;;;;4.28;61.79;99228.45;1777102;79;20485;-86
2022/03/26 05:40:38;;;;;;;;;;;;;;;4.37;61.88;99235.47;1775839;79;20888;-86
2022/03/26 05:43:04;;;;;;;;;;;;;;;4.44;61.94;99238.27;1778707;79;22007;-86
2022/03/26 05:45:30;;;;;;;;;;;;;;;4.53;62.02;99229.34;1782103;79;26003;-85
2022/03/26 05:47:59;;;;;;;;;;;;;;;4.65;62.15;99226.35;1781668;79;24485;-86
2022/03/26 05:50:26;;;;;;;;;;;;;;;4.75;62.24;99221.70;1757781;79;20167;-85
2022/03/26 05:52:52;;;;;;;;;;;;;;;4.80;62.29;99210.75;1776509;79;24867;-84
2022/03/26 05:55:20;;;;;;;;;;;;;;;4.85;62.34;99208.40;1737828;79;20146;-85
2022/03/26 05:57:47;;;;;;;;;;;;;;;4.88;62.39;99210.88;1782303;79;26015;-86
2022/03/26 06:00:13;;;;;;;;;;;;;;;4.94;62.43;99207.22;1774735;79;24506;-85
2022/03/26 06:02:40;;;;;;;;;;;;;;;5.03;62.44;99207.73;1777103;79;20453;-85
2022/03/26 06:05:06;;;;;;;;;;;;;;;5.12;62.40;99205.29;1779172;79;24706;-84
2022/03/26 06:07:32;;;;;;;;;;;;;;;5.21;62.39;99206.25;1780686;79;21921;-85
2022/03/26 06:09:59;;;;;;;;;;;;;;;5.26;62.37;99208.22;1782807;79;25988;-85
2022/03/26 06:12:28;;;;;;;;;;;;;;;5.31;62.32;99211.50;1785576;79;24486;-84
2022/03/26 06:14:54;;;;;;;;;;;;;;;5.35;62.30;99202.69;1775915;79;20250;-85
2022/03/26 06:17:22;;;;;;;;;;;;;;;5.40;62.28;99200.77;1778242;79;24687;-84
2022/03/26 06:19:49;;;;;;;;;;;;;;;5.45;62.28;99197.55;1778337;79;21997;-86
2022/03/26 06:22:15;;;;;;;;;;;;;;;5.51;62.25;99202.15;1779272;80;25963;-86
2022/03/26 06:24:41;;;;;;;;;;;;;;;5.57;62.26;99201.44;1779034;80;20895;-86
2022/03/26 06:27:07;;;;;;;;;;;;;;;5.67;62.28;99205.42;1771933;79;20239;-86
2022/03/26 06:29:36;;;;;;;;;;;;;;;5.76;62.36;99201.16;1779110;80;24859;-86
2022/03/26 06:32:03;;;;;;;;;;;;;;;5.83;62.39;99202.63;1780199;80;22389;-86
2022/03/26 06:34:29;;;;;;;;;;;;;;;5.91;62.46;99204.94;1779702;80;26033;-85
2022/03/26 06:36:55;;;;;;;;;;;;;;;6.00;62.55;99195.48;1775730;80;24476;-85
2022/03/26 06:39:21;;;;;;;;;;;;;;;6.11;62.65;99198.98;1772364;80;20305;-85
2022/03/26 06:41:47;;;;;;;;;;;;;;;6.19;62.74;99193.86;1779118;80;24717;-86
2022/03/26 06:44:13;;;;;;;;;;;;;;;6.29;62.79;99201.68;1774657;80;21926;-85
2022/03/26 06:46:40;;;;;;;;;;;;;;;6.39;62.86;99200.84;1772342;80;21044;-85
2022/03/26 06:49:10;;;;;;;;;;;;;;;6.50;62.90;99201.70;1773108;80;24707;-86
2022/03/26 06:51:36;;;;;;;;;;;;;;;6.62;62.90;99202.51;1776870;80;20444;-86
2022/03/26 06:54:02;;;;;;;;;;;;;;;6.72;62.94;99203.81;1774434;80;25039;-85
2022/03/26 06:56:28;;;;;;;;;;;;;;;6.82;62.97;99210.31;1772701;80;22070;-85
2022/03/26 06:58:55;;;;;;;;;;;;;;;6.94;62.97;99215.45;1772842;80;20977;-86
2022/03/26 07:01:21;;;;;;;;;;;;;;;7.05;62.96;99214.09;1781074;80;24502;-86
2022/03/26 07:03:47;;;;;;;;;;;;;;;7.15;62.93;99219.28;1776796;79;20251;-86
2022/03/26 07:06:15;;;;;;;;;;;;;;;7.28;62.90;99216.15;1775509;80;24906;-86
2022/03/26 07:08:41;;;;;;;;;;;;;;;7.40;62.85;99220.83;1778393;80;22730;-86
2022/03/26 07:11:07;;;;;;;;;;;;;;;7.50;62.78;99219.50;1776254;79;26276;-86
2022/03/26 07:13:33;;;;;;;;;;;;;;;7.61;62.75;99214.65;1777773;80;20406;-87
2022/03/26 07:15:59;;;;;;;;;;;;;;;7.73;62.72;99218.46;1782442;80;20819;-86
2022/03/26 07:18:25;;;;;;;;;;;;;;;7.83;62.64;99219.27;1775313;79;25343;-85
2022/03/26 07:20:52;;;;;;;;;;;;;;;7.97;62.58;99224.67;1776602;80;20304;-86
2022/03/26 07:23:18;;;;;;;;;;;;;;;8.11;62.52;99223.19;1767614;79;26044;-86
2022/03/26 07:25:45;;;;;;;;;;;;;;;8.26;62.50;99225.06;1770111;80;25218;-86
2022/03/26 07:28:11;;;;;;;;;;;;;;;8.40;62.45;99227.88;1765947;79;20190;-86
2022/03/26 07:30:39;;;;;;;;;;;;;;;8.51;62.33;99222.98;1770345;79;24799;-86
2022/03/26 07:33:05;;;;;;;;;;;;;;;8.67;62.21;99222.61;1772228;79;22059;-86
2022/03/26 07:35:31;;;;;;;;;;;;;;;8.80;61.93;99228.92;1772064;79;26007;-86
2022/03/26 07:37:58;;;;;;;;;;;;;;;8.96;61.72;99224.23;1777797;79;24535;-86
2022/03/26 07:40:24;;;;;;;;;;;;;;;9.11;61.46;99226.09;1773175;79;20182;-86
2022/03/26 07:42:50;;;;;;;;;;;;;;;9.23;61.14;99224.13;1769201;79;20192;-86
2022/03/26 07:45:16;;;;;;;;;;;;;;;9.35;60.87;99221.34;1769102;79;21992;-85
2022/03/26 07:47:42;;;;;;;;;;;;;;;9.46;60.61;99232.92;1778795;79;21279;-86
2022/03/26 07:50:08;;;;;;;;;;;;;;;9.62;60.49;99231.65;1770186;79;24525;-85
2022/03/26 07:52:35;;;;;;;;;;;;;;;9.77;60.41;99228.66;1778629;79;20280;-85
2022/03/26 07:55:01;;;;;;;;;;;;;;;9.92;60.35;99225.25;1776219;79;24690;-85
2022/03/26 07:57:28;;;;;;;;;;;;;;;10.06;60.07;99229.25;1772030;79;20799;-85
2022/03/26 07:59:54;;;;;;;;;;;;;;;10.20;59.84;99228.03;1769003;79;26763;-86
2022/03/26 08:02:20;;;;;;;;;;;;;;;10.35;59.65;99230.28;1782434;79;20238;-84
2022/03/26 08:04:46;;;;;;;;;;;;;;;10.50;59.46;99230.72;1773877;79;20240;-87
2022/03/26 08:07:12;;;;;;;;;;;;;;;10.66;59.34;99230.69;1781721;79;25778;-85
2022/03/26 08:09:38;;;;;;;;;;;;;;;10.86;59.18;99239.06;1771567;79;21944;-84
2022/03/26 08:12:04;;;;;;;;;;;;;;;11.00;59.04;99236.97;1769700;79;21023;-85
2022/03/26 08:14:33;;;;;;;;;;;;;;;11.06;58.81;99227.91;1775773;79;24523;-86
2022/03/26 08:16:58;;;;;;;;;;;;;;;11.12;58.62;99227.55;1775906;79;21823;-85
2022/03/26 08:19:24;;;;;;;;;;;;;;;11.19;58.45;99231.47;1779157;79;20708;-86
2022/03/26 08:21:51;;;;;;;;;;;;;;;11.25;58.17;99228.02;1770243;80;20319;-85
2022/03/26 08:24:18;;;;;;;;;;;;;;;11.29;57.94;99229.52;1770279;80;26821;-85
2022/03/26 08:26:44;;;;;;;;;;;;;;;11.33;57.76;99229.73;1775065;80;24463;-86
2022/03/26 08:29:10;;;;;;;;;;;;;;;11.39;57.54;99221.12;1772785;80;20284;-85
2022/03/26 08:31:36;;;;;;;;;;;;;;;11.49;57.44;99224.39;1772851;79;20750;-85
2022/03/26 08:34:02;;;;;;;;;;;;;;;11.59;57.35;99217.65;1774680;80;20276;-85
2022/03/26 08:36:30;;;;;;;;;;;;;;;11.70;57.31;99222.23;1752419;80;26677;-85
2022/03/26 08:38:56;;;;;;;;;;;;;;;11.81;57.24;99226.38;1779107;80;24462;-85
2022/03/26 08:41:23;;;;;;;;;;;;;;;11.92;57.10;99229.17;1771296;80;20174;-85
2022/03/26 08:43:50;;;;;;;;;;;;;;;11.98;56.86;99225.32;1777812;80;24719;-85
2022/03/26 08:46:17;;;;;;;;;;;;;;;12.02;56.60;99224.19;1774439;80;21957;-85
2022/03/26 08:48:43;;;;;;;;;;;;;;;12.05;56.41;99218.76;1775116;80;26126;-85
2022/03/26 08:51:11;;;;;;;;;;;;;;;12.15;56.23;99216.77;1768676;80;20240;-85
2022/03/26 08:53:37;;;;;;;;;;;;;;;12.28;56.14;99216.80;1773198;80;20440;-85
2022/03/26 08:58:51;;;;;;;;;;;;;;;12.47;55.99;99210.75;1692508;83;22076;-85
2022/03/26 09:01:17;;;;;;;;;;;;;;;12.49;55.85;99214.09;1687900;84;25431;-85
2022/03/26 09:03:43;;;;;;;;;;;;;;;12.54;55.73;99216.45;1655599;84;20338;-86
2022/03/26 09:06:10;;;;;;;;;;;;;;;12.61;55.64;99211.14;1677755;84;20358;-86
2022/03/26 09:08:36;;;;;;;;;;;;;;;12.72;55.58;99209.97;1659664;85;24449;-86
2022/03/26 09:11:04;;;;;;;;;;;;;;;12.81;55.45;99212.47;1679744;84;20982;-86
2022/03/26 09:13:30;;;;;;;;;;;;;;;12.87;55.41;99208.13;1670571;84;26091;-86
2022/03/26 09:15:58;;;;;;;;;;;;;;;12.90;55.36;99205.28;1665125;84;24389;-85
2022/03/26 09:18:25;;;;;;;;;;;;;;;12.91;55.25;99197.30;1671214;85;20463;-86
2022/03/26 09:20:51;;;;;;;;;;;;;;;12.93;55.13;99195.39;1678492;84;24933;-85
2022/03/26 09:23:17;;;;;;;;;;;;;;;12.98;55.06;99195.92;1670039;85;22069;-85
2022/03/26 09:25:43;;;;;;;;;;;;;;;13.06;54.96;99186.22;1636710;85;21012;-85
2022/03/26 09:28:09;;;;;;;;;;;;;;;13.11;54.84;99184.13;1636423;85;24425;-85
2022/03/26 09:30:36;;;;;;;;;;;;;;;13.18;54.72;99188.53;1685040;84;20315;-86
2022/03/26 09:33:02;;;;;;;;;;;;;;;13.23;54.59;99183.80;1671716;84;25003;-86
2022/03/26 09:35:28;;;;;;;;;;;;;;;13.29;54.55;99182.06;1673420;84;22031;-85
2022/03/26 09:37:55;;;;;;;;;;;;;;;13.35;54.51;99174.59;1668397;85;26205;-85
2022/03/26 09:40:22;;;;;;;;;;;;;;;13.46;54.49;99173.84;1667592;84;24439;-85
2022/03/26 09:42:49;;;;;;;;;;;;;;;13.58;54.50;99176.10;1683655;84;20319;-85
2022/03/26 09:45:16;;;;;;;;;;;;;;;13.62;54.31;99170.98;1666393;84;24608;-85
2022/03/26 09:47:42;;;;;;;;;;;;;;;13.62;54.10;99165.72;1673399;84;22588;-85
2022/03/26 09:50:10;;;;;;;;;;;;;;;13.67;53.98;99164.45;1663245;84;25986;-86
2022/03/26 09:52:36;;;;;;;;;;;;;;;13.68;53.83;99163.50;1643004;87;24337;-86
2022/03/26 09:55:03;;;;;;;;;;;;;;;13.74;53.69;99163.08;1632717;87;20212;-86
2022/03/26 09:57:29;;;;;;;;;;;;;;;13.82;53.56;99163.83;1645728;86;24762;-86
2022/03/26 09:59:56;;;;;;;;;;;;;;;13.82;53.35;99158.09;1644054;86;22085;-86
2022/03/26 10:02:22;;;;;;;;;;;;;;;13.83;53.12;99163.72;1636199;86;26104;-86
2022/03/26 10:04:48;;;;;;;;;;;;;;;13.89;53.11;99157.18;1646567;85;20888;-86
2022/03/26 10:07:14;;;;;;;;;;;;;;;13.97;53.13;99153.98;1657787;85;20154;-86
2022/03/26 10:09:41;;;;;;;;;;;;;;;14.04;53.08;99144.70;1660414;85;20800;-85
2022/03/26 10:12:11;;;;;;;;;;;;;;;14.12;53.00;99152.42;1657717;85;22796;-85
2022/03/26 10:14:39;;;;;;;;;;;;;;;14.17;52.82;99144.19;1667669;85;26550;-86
2022/03/26 10:17:13;;;;;;;;;;;;;;;14.23;52.76;99138.00;1660010;85;24684;-86
2022/03/26 10:19:44;;;;;;;;;;;;;;;14.29;52.63;99135.39;1651171;85;20320;-86
2022/03/26 10:22:14;;;;;;;;;;;;;;;14.36;52.50;99133.12;1648418;85;25395;-85
2022/03/26 10:24:46;;;;;;;;;;;;;;;14.44;52.36;99135.59;1642130;85;22076;-85
2022/03/26 10:27:12;;;;;;;;;;;;;;;14.48;52.16;99125.66;1644715;85;26070;-85
2022/03/26 10:29:45;;;;;;;;;;;;;;;14.51;51.83;99120.99;1650247;85;24440;-86
2022/03/26 10:34:57;;;;;;;;;;;;;;;14.61;51.25;99122.48;1650094;85;24882;-85
2022/03/26 10:37:23;;;;;;;;;;;;;;;14.63;50.92;99117.92;1647162;85;22178;-85
2022/03/26 10:39:49;;;;;;;;;;;;;;;14.68;50.75;99114.93;1659830;85;20977;-85
2022/03/26 10:42:15;;;;;;;;;;;;;;;14.72;50.68;99110.66;1687375;84;24494;-85
2022/03/26 10:44:41;;;;;;;;;;;;;;;14.81;50.60;99113.90;1689293;83;20317;-85
2022/03/26 10:47:09;;;;;;;;;;;;;;;14.88;50.45;99111.64;1687346;84;20736;-85
2022/03/26 10:49:36;;;;;;;;;;;;;;;14.92;50.32;99109.97;1692593;84;22113;-85
2022/03/26 10:52:07;;;;;;;;;;;;;;;15.01;50.22;99099.17;1693150;84;26719;-85
2022/03/26 10:54:33;;;;;;;;;;;;;;;15.10;49.96;99101.13;1690951;83;24427;-85
2022/03/26 10:57:00;;;;;;;;;;;;;;;15.12;49.73;99099.66;1686022;84;20222;-85
2022/03/26 10:59:28;;;;;;;;;;;;;;;15.07;49.40;99095.59;1686782;84;24770;-85
2022/03/26 11:01:54;;;;;;;;;;;;;;;15.02;49.05;99092.95;1686376;84;22864;-86
2022/03/26 11:04:20;;;;;;;;;;;;;;;14.99;48.84;99095.37;1685427;84;20956;-85
2022/03/26 11:06:47;;;;;;;;;;;;;;;15.06;48.75;99094.39;1687034;84;24067;-85
2022/03/26 11:09:14;;;;;;;;;;;;;;;15.21;48.75;99086.63;1688289;84;20181;-85
2022/03/26 11:11:48;;;;;;;;;;;;;;;15.34;48.57;99087.32;1685572;84;24920;-86
2022/03/26 11:14:16;;;;;;;;;;;;;;;15.38;48.39;99078.20;1689317;84;22079;-86
2022/03/26 11:16:59;;;;;;;;;;;;;;;15.49;48.38;99072.91;1689764;83;26072;-86
2022/03/26 11:19:30;;;;;;;;;;;;;;;15.61;48.23;99084.80;1686118;84;24528;-86
2022/03/26 11:21:57;;;;;;;;;;;;;;;15.69;48.02;99074.48;1690350;84;20251;-85
2022/03/26 11:24:28;;;;;;;;;;;;;;;15.63;47.75;99076.29;1688801;84;24859;-85
2022/03/26 11:27:13;;;;;;;;;;;;;;;15.52;47.40;99072.35;1686102;84;22014;-86
2022/03/26 11:29:46;;;;;;;;;;;;;;;15.42;47.21;99069.11;1684187;84;26066;-85
2022/03/26 11:32:20;;;;;;;;;;;;;;;15.39;47.09;99060.09;1687430;83;24731;-85
2022/03/26 11:34:48;;;;;;;;;;;;;;;15.56;47.23;99050.88;1685070;84;20419;-86
2022/03/26 11:37:15;;;;;;;;;;;;;;;15.73;47.29;99050.83;1687807;84;25035;-86
2022/03/26 11:39:46;;;;;;;;;;;;;;;15.79;47.05;99052.98;1688696;83;21990;-86
2022/03/26 11:42:13;;;;;;;;;;;;;;;15.80;46.83;99050.22;1686106;84;25998;-86
2022/03/26 11:50:41;;;;;;;;;;;;;;;15.75;46.56;99043.64;1692479;84;24855;-86
2022/03/26 11:53:09;;;;;;;;;;;;;;;15.70;45.79;99040.54;1685997;84;22189;-85
2022/03/26 11:55:42;;;;;;;;;;;;;;;15.64;45.60;99036.59;1685799;84;25965;-85
2022/03/26 11:58:24;;;;;;;;;;;;;;;15.65;45.49;99036.95;1685821;84;25112;-85
2022/03/26 12:01:03;;;;;;;;;;;;;;;15.69;45.37;99033.58;1686141;84;20211;-86
2022/03/26 12:03:30;;;;;;;;;;;;;;;15.79;45.28;99027.42;1692844;84;24805;-85
2022/03/26 12:08:50;;;;;;;;;;;;;;;15.69;44.97;99017.75;1689738;83;26862;-85
2022/03/26 12:11:19;;;;;;;;;;;;;;;15.61;44.85;99015.72;1683612;84;25118;-85
2022/03/26 12:13:47;;;;;;;;;;;;;;;15.65;44.76;99015.84;1688755;84;20209;-85
2022/03/26 12:16:13;;;;;;;;;;;;;;;15.76;44.75;99009.70;1672746;84;24862;-85
2022/03/26 12:18:39;;;;;;;;;;;;;;;15.83;44.66;99005.56;1686778;84;20832;-85
2022/03/26 12:21:09;;;;;;;;;;;;;;;15.88;44.55;99000.74;1690165;84;26002;-85
2022/03/26 12:23:36;;;;;;;;;;;;;;;15.92;44.42;99010.11;1688019;84;24525;-85
2022/03/26 12:26:05;;;;;;;;;;;;;;;15.96;44.33;99000.97;1684858;84;20603;-85
2022/03/26 12:28:35;;;;;;;;;;;;;;;16.02;44.27;98997.82;1680993;84;24795;-85
2022/03/26 12:31:06;;;;;;;;;;;;;;;16.10;44.19;98991.41;1687323;84;22875;-85
2022/03/26 12:33:49;;;;;;;;;;;;;;;16.22;44.08;98991.70;1690472;84;26009;-86
2022/03/26 12:36:17;;;;;;;;;;;;;;;16.28;43.96;98980.63;1664261;85;26532;-85
2022/03/26 12:38:48;;;;;;;;;;;;;;;16.40;43.92;98971.31;1679406;85;20206;-86
2022/03/26 12:41:15;;;;;;;;;;;;;;;16.52;43.80;98968.95;1674059;84;24748;-85
2022/03/26 12:43:44;;;;;;;;;;;;;;;16.67;43.79;98970.30;1677761;84;22122;-85
2022/03/26 12:46:12;;;;;;;;;;;;;;;16.68;43.49;98966.69;1686110;84;26027;-85
2022/03/26 12:48:38;;;;;;;;;;;;;;;16.59;43.16;98974.91;1687753;83;24529;-84
2022/03/26 12:51:05;;;;;;;;;;;;;;;16.54;42.94;98965.67;1687488;84;20292;-85
2022/03/26 12:53:36;;;;;;;;;;;;;;;16.47;42.76;98967.19;1688076;84;24803;-85
2022/03/26 12:56:03;;;;;;;;;;;;;;;16.40;42.60;98960.74;1685652;84;21956;-85
2022/03/26 13:01:13;;;;;;;;;;;;;;;16.25;42.33;98960.25;1689141;84;24558;-85
2022/03/26 13:03:40;;;;;;;;;;;;;;;16.22;42.24;98958.69;1692758;84;20280;-84
2022/03/26 13:06:08;;;;;;;;;;;;;;;16.20;42.19;98957.97;1694247;83;24754;-85
2022/03/26 13:08:34;;;;;;;;;;;;;;;16.20;42.09;98948.73;1688897;84;22523;-85